Time;durP1;ratioP1;P1;durP2;ratioP2;P2;SDS_P1;SDS_P2;PMS_P1;PMS_P2;Temp;Humidity;BMP_temperature;BMP_pressure;BME280_temperature;BME280_humidity;BME280_pressure;Samples;Min_cycle;Max_cycle;Signal;HPM_P1;HPM_P2
2023/06/18 00:01:26;;;;;;;;;;;;;;;15.29;68.10;101927.06;5074105;28;19990;-66
2023/06/18 00:03:51;;;;;;;;;;;;;;;15.26;68.02;101926.56;5072657;28;20010;-63
2023/06/18 00:06:16;;;;;;;;;;;;;;;15.18;67.52;101933.59;5073714;28;20015;-66
2023/06/18 00:08:42;;;;;;;;;;;;;;;15.17;67.68;101926.56;5075829;28;19999;-63
2023/06/18 00:11:11;;;;;;;;;;;;;;;15.07;67.54;101927.72;5076081;28;19928;-65
2023/06/18 00:13:36;;;;;;;;;;;;;;;15.09;67.55;101931.09;5072385;28;19970;-62
2023/06/18 00:16:02;;;;;;;;;;;;;;;15.09;67.48;101931.91;5072596;28;19920;-65
2023/06/18 00:18:27;;;;;;;;;;;;;;;15.02;67.66;101936.22;5072455;28;20288;-64
2023/06/18 00:20:52;;;;;;;;;;;;;;;14.99;67.35;101939.25;5072588;28;19920;-64
2023/06/18 00:23:18;;;;;;;;;;;;;;;14.96;66.83;101936.88;5072786;28;19924;-63
2023/06/18 00:25:43;;;;;;;;;;;;;;;14.90;67.09;101953.66;5074722;28;19943;-65
2023/06/18 00:28:08;;;;;;;;;;;;;;;14.88;67.12;101948.44;5078572;28;19921;-64
2023/06/18 00:30:34;;;;;;;;;;;;;;;14.91;67.06;101944.59;5072936;28;20373;-63
2023/06/18 00:33:00;;;;;;;;;;;;;;;14.90;66.52;101942.91;5074626;28;19920;-66
2023/06/18 00:35:25;;;;;;;;;;;;;;;14.89;66.86;101949.28;5074719;28;20338;-68
2023/06/18 00:37:52;;;;;;;;;;;;;;;14.87;66.50;101937.88;5076386;28;19928;-66
2023/06/18 00:40:17;;;;;;;;;;;;;;;14.84;66.66;101946.25;5076263;28;19928;-66
2023/06/18 00:42:48;;;;;;;;;;;;;;;14.77;66.76;101945.22;5076278;28;19920;-65
2023/06/18 00:45:14;;;;;;;;;;;;;;;14.77;66.15;101947.91;5076097;28;20379;-66
2023/06/18 00:47:44;;;;;;;;;;;;;;;14.73;65.96;101949.19;5076117;28;19946;-65
2023/06/18 00:50:14;;;;;;;;;;;;;;;14.79;65.71;101948.56;5076269;28;19921;-64
2023/06/18 00:52:44;;;;;;;;;;;;;;;14.73;65.21;101957.25;5075979;28;19920;-65
2023/06/18 00:55:09;;;;;;;;;;;;;;;14.72;65.28;101959.09;5075860;28;20462;-63
2023/06/18 00:57:35;;;;;;;;;;;;;;;14.71;64.90;101952.03;5075737;28;19959;-64
2023/06/18 01:00:04;;;;;;;;;;;;;;;14.68;65.03;101949.69;5075913;28;19964;-63
2023/06/18 01:02:30;;;;;;;;;;;;;;;14.62;65.12;101960.22;5076132;28;19966;-64
2023/06/18 01:04:56;;;;;;;;;;;;;;;14.61;64.85;101959.38;5058084;28;19924;-66
2023/06/18 01:07:22;;;;;;;;;;;;;;;14.59;64.98;101965.91;5075964;28;19920;-64
2023/06/18 01:09:54;;;;;;;;;;;;;;;14.56;64.63;101973.25;5075496;28;20014;-65
2023/06/18 01:12:20;;;;;;;;;;;;;;;14.55;64.32;101971.59;5075571;28;19930;-65
2023/06/18 01:14:50;;;;;;;;;;;;;;;14.55;64.59;101978.78;5075751;28;19924;-67
2023/06/18 01:17:17;;;;;;;;;;;;;;;14.50;64.39;101976.59;5075676;28;20001;-66
2023/06/18 01:19:49;;;;;;;;;;;;;;;14.53;64.04;101978.09;5075405;28;19928;-64
2023/06/18 01:22:30;;;;;;;;;;;;;;;14.55;64.02;101976.94;5075446;28;19963;-64
2023/06/18 01:24:57;;;;;;;;;;;;;;;14.59;63.77;101982.00;5075646;28;19920;-64
2023/06/18 01:27:27;;;;;;;;;;;;;;;14.57;63.45;101980.31;5077313;28;19920;-64
2023/06/18 01:29:54;;;;;;;;;;;;;;;14.60;63.23;101981.81;5078707;28;19920;-63
2023/06/18 01:32:21;;;;;;;;;;;;;;;14.64;62.99;101976.97;5075696;28;20291;-64
2023/06/18 01:34:47;;;;;;;;;;;;;;;14.60;62.67;101989.03;5076210;28;19921;-63
2023/06/18 01:37:19;;;;;;;;;;;;;;;14.57;62.71;101987.50;5057530;28;19921;-66
2023/06/18 01:39:54;;;;;;;;;;;;;;;14.61;62.49;101978.16;5075469;28;19942;-64
2023/06/18 01:42:20;;;;;;;;;;;;;;;14.65;62.82;101986.72;5075423;28;19966;-64
2023/06/18 01:44:48;;;;;;;;;;;;;;;14.66;62.41;101988.38;5075108;28;19956;-66
2023/06/18 01:47:15;;;;;;;;;;;;;;;14.71;61.83;101989.59;5074756;28;19920;-63
2023/06/18 01:49:42;;;;;;;;;;;;;;;14.70;62.21;101995.09;5074957;28;19921;-64
2023/06/18 01:52:09;;;;;;;;;;;;;;;14.70;61.34;101997.78;5057199;28;19920;-67
2023/06/18 01:54:35;;;;;;;;;;;;;;;14.65;61.25;101998.28;5075037;28;20422;-64
2023/06/18 01:57:01;;;;;;;;;;;;;;;14.64;61.76;101995.75;5075107;28;19921;-65
2023/06/18 01:59:26;;;;;;;;;;;;;;;14.63;61.44;101991.38;5075764;28;19924;-65
2023/06/18 02:01:51;;;;;;;;;;;;;;;14.62;61.45;101997.75;5075053;28;19920;-65
2023/06/18 02:04:17;;;;;;;;;;;;;;;14.64;61.20;101995.75;5075162;28;20307;-64
2023/06/18 02:06:42;;;;;;;;;;;;;;;14.63;60.75;101996.75;5075184;28;20306;-63
2023/06/18 02:09:08;;;;;;;;;;;;;;;14.71;61.02;101989.59;5074703;28;19920;-64
2023/06/18 02:11:34;;;;;;;;;;;;;;;14.74;60.56;101988.41;5074598;28;20299;-65
2023/06/18 02:13:59;;;;;;;;;;;;;;;14.77;60.51;101993.50;5074576;28;19993;-65
2023/06/18 02:16:25;;;;;;;;;;;;;;;14.77;60.31;101994.34;5056810;28;19924;-64
2023/06/18 02:18:50;;;;;;;;;;;;;;;14.77;60.05;101996.19;5074640;28;19928;-62
2023/06/18 02:21:15;;;;;;;;;;;;;;;14.82;59.84;101989.31;5074716;28;19943;-66
2023/06/18 02:23:40;;;;;;;;;;;;;;;14.85;59.80;101988.16;5074840;28;19924;-66
2023/06/18 02:26:08;;;;;;;;;;;;;;;14.86;59.90;101995.19;5056352;28;19920;-64
2023/06/18 02:28:34;;;;;;;;;;;;;;;14.85;59.65;102001.56;5074165;28;19921;-64
2023/06/18 02:30:59;;;;;;;;;;;;;;;14.84;59.36;102003.41;5074053;28;20371;-65
2023/06/18 02:33:25;;;;;;;;;;;;;;;14.85;59.83;102004.25;5056248;28;19982;-63
2023/06/18 02:35:50;;;;;;;;;;;;;;;14.87;59.63;102004.94;5074238;28;19974;-67
2023/06/18 02:38:16;;;;;;;;;;;;;;;14.82;60.04;102005.41;5074295;28;19963;-62
2023/06/18 02:40:41;;;;;;;;;;;;;;;14.77;59.69;102001.53;5056217;28;19920;-66
2023/06/18 02:43:08;;;;;;;;;;;;;;;14.80;59.82;102001.22;5074061;28;19931;-66
2023/06/18 02:45:34;;;;;;;;;;;;;;;14.78;59.67;102004.06;5073791;28;19974;-64
2023/06/18 02:47:59;;;;;;;;;;;;;;;14.83;59.44;102000.88;5073705;28;19951;-65
2023/06/18 02:50:24;;;;;;;;;;;;;;;15.08;58.95;102000.00;5073858;28;20334;-66
2023/06/18 02:52:50;;;;;;;;;;;;;;;15.66;57.74;102003.72;5039644;28;20015;-62
2023/06/18 02:55:15;;;;;;;;;;;;;;;16.74;54.77;101994.38;5073916;28;20556;-63
2023/06/18 02:57:41;;;;;;;;;;;;;;;18.37;49.64;101999.59;5073113;28;20460;-63
2023/06/18 03:00:11;;;;;;;;;;;;;;;19.98;43.99;102000.41;5073642;28;20454;-65
2023/06/18 03:02:37;;;;;;;;;;;;;;;21.05;41.28;102002.78;5073629;28;19920;-67
2023/06/18 03:05:02;;;;;;;;;;;;;;;21.67;39.86;102004.47;5073842;28;19921;-65
2023/06/18 03:07:28;;;;;;;;;;;;;;;22.30;38.30;102002.25;5073423;28;20302;-64
2023/06/18 03:09:55;;;;;;;;;;;;;;;22.86;37.82;102008.03;5073435;28;19924;-64
2023/06/18 03:12:22;;;;;;;;;;;;;;;23.60;36.39;102009.38;5055496;28;19925;-64
2023/06/18 03:14:47;;;;;;;;;;;;;;;24.08;34.83;102000.69;5073237;28;19967;-65
2023/06/18 03:17:12;;;;;;;;;;;;;;;24.07;34.85;102009.91;5073210;28;20021;-65
2023/06/18 03:19:38;;;;;;;;;;;;;;;24.31;36.00;102011.81;5073334;28;19927;-66
2023/06/18 03:22:04;;;;;;;;;;;;;;;24.38;35.03;102017.19;5073057;28;19927;-64
2023/06/18 03:24:29;;;;;;;;;;;;;;;24.29;34.44;102011.22;5073114;28;19956;-66
2023/06/18 03:26:58;;;;;;;;;;;;;;;24.27;35.37;102015.16;5072915;28;19921;-66
2023/06/18 03:29:28;;;;;;;;;;;;;;;24.84;35.02;102016.69;5072853;28;19983;-65
2023/06/18 03:31:54;;;;;;;;;;;;;;;25.33;32.87;102023.88;5055193;28;20018;-63
2023/06/18 03:34:20;;;;;;;;;;;;;;;25.91;33.68;102017.84;5073039;28;19967;-65
2023/06/18 03:36:46;;;;;;;;;;;;;;;26.00;33.27;102021.03;5073078;28;19920;-64
2023/06/18 03:39:12;;;;;;;;;;;;;;;25.19;32.78;102024.31;5072967;28;19990;-64
2023/06/18 03:41:38;;;;;;;;;;;;;;;23.01;36.18;102032.22;5072852;28;20365;-65
2023/06/18 03:44:03;;;;;;;;;;;;;;;22.49;37.79;102031.25;5072596;28;19920;-66
2023/06/18 03:46:29;;;;;;;;;;;;;;;22.98;36.97;102029.94;5054902;28;20376;-66
2023/06/18 03:48:55;;;;;;;;;;;;;;;23.68;35.91;102028.16;5072685;28;20307;-66
2023/06/18 03:51:20;;;;;;;;;;;;;;;23.76;35.78;102030.63;5054614;28;19927;-65
2023/06/18 03:53:46;;;;;;;;;;;;;;;23.87;35.59;102025.53;5072793;28;19964;-64
2023/06/18 03:56:11;;;;;;;;;;;;;;;24.03;35.61;102025.00;5072689;28;19924;-66
2023/06/18 03:58:36;;;;;;;;;;;;;;;24.35;35.27;102029.38;5072441;28;20021;-64
2023/06/18 04:01:02;;;;;;;;;;;;;;;24.67;34.38;102021.09;5054534;28;19928;-64
2023/06/18 04:03:27;;;;;;;;;;;;;;;24.87;33.77;102027.16;5072632;28;19940;-65
2023/06/18 04:05:53;;;;;;;;;;;;;;;24.49;34.66;102024.63;5072728;28;19920;-65
2023/06/18 04:08:18;;;;;;;;;;;;;;;24.18;34.69;102033.66;5072339;28;19920;-68
2023/06/18 04:10:45;;;;;;;;;;;;;;;24.26;34.97;102024.38;5072504;28;20325;-67
2023/06/18 04:13:18;;;;;;;;;;;;;;;24.67;34.89;102034.72;5072275;28;20383;-67
2023/06/18 04:15:44;;;;;;;;;;;;;;;24.80;33.83;102023.66;5072390;28;20011;-66
2023/06/18 04:18:09;;;;;;;;;;;;;;;24.67;34.42;102021.09;5072691;28;19960;-65
2023/06/18 04:20:35;;;;;;;;;;;;;;;24.36;34.92;102036.47;5072436;28;19920;-66
2023/06/18 04:23:00;;;;;;;;;;;;;;;24.48;34.83;102038.47;5072201;28;20406;-67
2023/06/18 04:25:26;;;;;;;;;;;;;;;24.99;34.30;102028.09;5072467;28;20012;-66
2023/06/18 04:27:51;;;;;;;;;;;;;;;25.25;33.72;102037.03;5072254;28;19928;-65
2023/06/18 04:30:16;;;;;;;;;;;;;;;25.00;34.11;102026.22;5054669;28;19931;-67
2023/06/18 04:32:42;;;;;;;;;;;;;;;25.20;33.97;102025.97;5055949;28;19921;-66
2023/06/18 04:35:07;;;;;;;;;;;;;;;25.20;33.76;102034.16;5055781;28;19974;-66
2023/06/18 04:37:33;;;;;;;;;;;;;;;24.99;34.05;102030.81;5073539;28;19928;-64
2023/06/18 04:39:58;;;;;;;;;;;;;;;25.01;34.31;102023.25;5072360;28;20502;-64
2023/06/18 04:42:23;;;;;;;;;;;;;;;25.16;33.86;102024.78;5072009;28;20384;-64
2023/06/18 04:44:49;;;;;;;;;;;;;;;25.00;33.87;102018.84;5072187;28;19921;-65
2023/06/18 04:47:15;;;;;;;;;;;;;;;24.95;34.19;102026.84;5072501;28;19920;-64
2023/06/18 04:49:42;;;;;;;;;;;;;;;25.02;34.83;102024.09;5072689;28;19927;-64
2023/06/18 04:52:07;;;;;;;;;;;;;;;25.40;34.31;102025.69;5073613;28;19974;-65
2023/06/18 04:54:33;;;;;;;;;;;;;;;25.87;33.96;102022.09;5074111;28;20395;-65
2023/06/18 04:56:59;;;;;;;;;;;;;;;26.50;32.80;102026.09;5074837;28;20070;-64
2023/06/18 04:59:25;;;;;;;;;;;;;;;26.81;31.94;102019.44;5072237;28;19948;-66
2023/06/18 05:01:51;;;;;;;;;;;;;;;26.16;32.78;102020.38;5054098;28;20010;-65
2023/06/18 05:04:16;;;;;;;;;;;;;;;25.99;32.96;102016.66;5072044;28;19925;-65
2023/06/18 05:06:41;;;;;;;;;;;;;;;25.71;33.34;102021.91;5072076;28;20392;-66
2023/06/18 05:09:07;;;;;;;;;;;;;;;25.31;33.92;102022.47;5071958;28;20015;-64
2023/06/18 05:11:33;;;;;;;;;;;;;;;24.89;34.50;102016.88;5054014;28;19924;-65
2023/06/18 05:14:00;;;;;;;;;;;;;;;24.83;34.95;102015.03;5071893;28;20387;-66
2023/06/18 05:16:26;;;;;;;;;;;;;;;24.67;35.23;102023.81;5053657;28;20015;-66
2023/06/18 05:18:51;;;;;;;;;;;;;;;24.17;36.11;102014.84;5071872;28;20047;-67
2023/06/18 05:21:16;;;;;;;;;;;;;;;23.64;37.17;102015.22;5039722;28;20395;-66
2023/06/18 05:23:42;;;;;;;;;;;;;;;23.36;37.83;102029.13;5058353;28;19927;-65
2023/06/18 05:26:07;;;;;;;;;;;;;;;22.93;38.09;102035.19;5058539;28;20026;-64
2023/06/18 05:28:32;;;;;;;;;;;;;;;21.70;40.74;102023.06;5075915;28;19924;-69
2023/06/18 05:30:57;;;;;;;;;;;;;;;20.52;43.48;102026.84;5057859;28;19920;-65
2023/06/18 05:33:23;;;;;;;;;;;;;;;19.75;45.32;102027.63;5075445;28;19925;-65
2023/06/18 05:35:48;;;;;;;;;;;;;;;19.28;46.71;102022.69;5075451;28;19920;-67
2023/06/18 05:38:14;;;;;;;;;;;;;;;18.92;47.19;102030.75;5075809;28;20375;-66
2023/06/18 05:40:39;;;;;;;;;;;;;;;18.85;47.09;102027.97;5076025;28;19921;-65
2023/06/18 05:43:05;;;;;;;;;;;;;;;18.86;47.15;102034.19;5075901;28;19968;-67
2023/06/18 05:45:30;;;;;;;;;;;;;;;18.91;48.17;102033.63;5076432;28;19920;-67
2023/06/18 05:47:55;;;;;;;;;;;;;;;18.94;47.37;102027.84;5076546;28;19921;-68
2023/06/18 05:50:21;;;;;;;;;;;;;;;18.80;46.39;102029.53;5076412;28;19920;-66
2023/06/18 05:52:46;;;;;;;;;;;;;;;18.63;46.46;102030.72;5075490;28;19925;-64
2023/06/18 05:55:11;;;;;;;;;;;;;;;18.52;47.09;102029.31;5074947;28;20387;-65
2023/06/18 05:57:37;;;;;;;;;;;;;;;18.64;46.98;102033.25;5075419;28;20019;-66
2023/06/18 06:00:02;;;;;;;;;;;;;;;18.85;47.16;102035.22;5040656;28;20035;-65
2023/06/18 06:02:28;;;;;;;;;;;;;;;18.98;47.16;102034.53;5057266;28;19920;-67
2023/06/18 06:04:54;;;;;;;;;;;;;;;19.14;46.71;102029.78;5056912;28;19920;-64
2023/06/18 06:07:20;;;;;;;;;;;;;;;19.23;47.16;102025.13;5056889;28;19986;-67
2023/06/18 06:09:45;;;;;;;;;;;;;;;19.14;47.31;102035.19;5074351;28;20299;-64
2023/06/18 06:12:12;;;;;;;;;;;;;;;19.06;47.74;102032.56;5074713;28;19924;-66
2023/06/18 06:14:37;;;;;;;;;;;;;;;18.92;47.75;102024.50;5075054;28;20423;-67
2023/06/18 06:17:03;;;;;;;;;;;;;;;18.84;47.48;102034.38;5074733;28;19920;-63
2023/06/18 06:19:28;;;;;;;;;;;;;;;18.91;47.09;102033.63;5056615;28;19950;-66
2023/06/18 06:21:54;;;;;;;;;;;;;;;18.87;47.13;102023.22;5074418;28;20023;-68
2023/06/18 06:24:20;;;;;;;;;;;;;;;18.84;46.45;102028.97;5074223;28;20022;-65
2023/06/18 06:26:45;;;;;;;;;;;;;;;18.79;45.46;102035.94;5074547;28;20007;-63
2023/06/18 06:29:10;;;;;;;;;;;;;;;18.71;45.80;102034.16;5056290;28;19920;-63
2023/06/18 06:31:36;;;;;;;;;;;;;;;18.75;46.32;102034.63;5073643;28;19921;-64
2023/06/18 06:34:01;;;;;;;;;;;;;;;18.83;46.01;102032.69;5056236;28;20327;-65
2023/06/18 06:36:27;;;;;;;;;;;;;;;18.91;45.69;102041.72;5073994;28;19947;-64
2023/06/18 06:38:52;;;;;;;;;;;;;;;18.96;45.15;102045.53;5073918;28;19920;-66
2023/06/18 06:41:17;;;;;;;;;;;;;;;18.95;44.81;102045.72;5074000;28;19986;-65
2023/06/18 06:43:43;;;;;;;;;;;;;;;18.88;44.86;102051.88;5075206;28;19955;-67
2023/06/18 06:46:08;;;;;;;;;;;;;;;18.88;44.82;102043.78;5073888;28;19927;-66
2023/06/18 06:48:33;;;;;;;;;;;;;;;18.82;44.82;102039.13;5074041;28;20019;-67
2023/06/18 06:50:59;;;;;;;;;;;;;;;18.92;44.97;102040.69;5039336;28;20015;-65
2023/06/18 06:53:24;;;;;;;;;;;;;;;19.05;45.09;102046.25;5073539;28;19927;-66
2023/06/18 06:55:49;;;;;;;;;;;;;;;19.03;44.81;102042.91;5055830;28;19927;-66
2023/06/18 06:58:15;;;;;;;;;;;;;;;19.00;45.14;102049.53;5074820;28;19921;-66
2023/06/18 07:00:40;;;;;;;;;;;;;;;19.00;46.03;102040.59;5075034;28;19920;-63
2023/06/18 07:03:06;;;;;;;;;;;;;;;19.05;45.32;102041.69;5075280;28;19966;-65
2023/06/18 07:05:31;;;;;;;;;;;;;;;18.99;45.76;102055.13;5074535;28;20299;-64
2023/06/18 07:07:56;;;;;;;;;;;;;;;18.84;46.16;102050.56;5074426;28;19924;-64
2023/06/18 07:10:23;;;;;;;;;;;;;;;18.79;46.62;102047.59;5073531;28;19925;-67
2023/06/18 07:12:49;;;;;;;;;;;;;;;18.75;46.08;102045.44;5073437;28;19929;-67
2023/06/18 07:15:14;;;;;;;;;;;;;;;18.76;45.38;102053.34;5073700;28;19955;-67
2023/06/18 07:17:40;;;;;;;;;;;;;;;18.74;45.71;102054.53;5055701;28;19967;-67
2023/06/18 07:20:05;;;;;;;;;;;;;;;18.74;45.95;102060.78;5073526;28;19924;-67
2023/06/18 07:22:31;;;;;;;;;;;;;;;18.73;45.96;102064.50;5073638;28;20338;-66
2023/06/18 07:24:58;;;;;;;;;;;;;;;18.66;46.14;102050.09;5073314;28;19928;-66
2023/06/18 07:27:24;;;;;;;;;;;;;;;18.65;46.21;102050.28;5073255;28;20027;-66
2023/06/18 07:29:50;;;;;;;;;;;;;;;18.65;46.41;102056.50;5073858;28;19974;-65
2023/06/18 07:32:15;;;;;;;;;;;;;;;18.66;44.95;102050.09;5076465;28;19943;-67
2023/06/18 07:34:40;;;;;;;;;;;;;;;18.79;45.44;102047.59;5077671;28;19920;-67
2023/06/18 07:37:05;;;;;;;;;;;;;;;18.83;44.46;102058.84;5075915;28;19920;-65
2023/06/18 07:39:31;;;;;;;;;;;;;;;18.87;43.86;102055.59;5055796;28;20410;-65
2023/06/18 07:41:56;;;;;;;;;;;;;;;18.87;44.00;102058.28;5072975;28;20418;-67
2023/06/18 07:44:21;;;;;;;;;;;;;;;18.90;43.85;102050.84;5073821;28;20288;-68
2023/06/18 07:46:47;;;;;;;;;;;;;;;18.95;44.20;102061.91;5074582;28;20019;-66
2023/06/18 07:49:13;;;;;;;;;;;;;;;19.03;44.12;102053.72;5074693;28;19921;-65
2023/06/18 07:51:38;;;;;;;;;;;;;;;19.00;43.84;102059.50;5073512;28;20276;-65
2023/06/18 07:54:03;;;;;;;;;;;;;;;19.00;44.12;102054.09;5054578;28;20311;-65
2023/06/18 07:56:29;;;;;;;;;;;;;;;19.03;44.21;102053.72;5054723;28;19967;-65
2023/06/18 07:58:54;;;;;;;;;;;;;;;19.09;44.41;102047.59;5072519;28;19940;-65
2023/06/18 08:01:20;;;;;;;;;;;;;;;19.06;42.82;102059.56;5073032;28;19927;-67
2023/06/18 08:03:45;;;;;;;;;;;;;;;19.04;42.74;102066.19;5072778;28;19920;-66
2023/06/18 08:06:11;;;;;;;;;;;;;;;18.97;43.66;102058.00;5072669;28;19921;-69
2023/06/18 08:08:36;;;;;;;;;;;;;;;18.98;42.70;102061.53;5037864;28;20426;-65
2023/06/18 08:11:01;;;;;;;;;;;;;;;19.01;42.66;102064.72;5072516;28;20403;-65
2023/06/18 08:13:27;;;;;;;;;;;;;;;19.03;41.86;102065.34;5072695;28;19928;-66
2023/06/18 08:15:53;;;;;;;;;;;;;;;19.02;42.76;102070.94;5054837;28;19931;-67
2023/06/18 08:18:18;;;;;;;;;;;;;;;19.03;42.60;102064.50;5054638;28;20003;-64
2023/06/18 08:20:43;;;;;;;;;;;;;;;18.93;43.08;102066.66;5073736;28;19925;-65
2023/06/18 08:23:08;;;;;;;;;;;;;;;18.90;42.77;102073.28;5054834;28;20381;-65
2023/06/18 08:25:35;;;;;;;;;;;;;;;18.84;42.69;102072.16;5054510;28;19926;-63
2023/06/18 08:28:00;;;;;;;;;;;;;;;18.86;43.22;102062.03;5054396;28;20379;-69
2023/06/18 08:30:25;;;;;;;;;;;;;;;18.96;43.22;102075.22;5072406;28;19966;-67
2023/06/18 08:32:51;;;;;;;;;;;;;;;19.08;42.78;102073.75;5054236;28;20391;-65
2023/06/18 08:35:16;;;;;;;;;;;;;;;19.07;42.24;102065.81;5072137;28;19974;-67
2023/06/18 08:37:42;;;;;;;;;;;;;;;19.09;41.85;102063.78;5072239;28;19920;-62
2023/06/18 08:40:10;;;;;;;;;;;;;;;19.11;40.97;102056.34;5054161;28;20294;-66
2023/06/18 08:42:35;;;;;;;;;;;;;;;19.14;41.16;102069.47;5072054;28;19921;-66
2023/06/18 08:45:05;;;;;;;;;;;;;;;19.19;42.30;102062.47;5071278;28;20200;-66
2023/06/18 08:47:32;;;;;;;;;;;;;;;19.24;41.71;102064.59;5072344;28;19936;-66
2023/06/18 08:49:59;;;;;;;;;;;;;;;19.19;39.97;102058.94;5072117;28;19937;-67
2023/06/18 08:52:25;;;;;;;;;;;;;;;19.16;40.74;102057.44;5054013;28;19927;-66
2023/06/18 08:54:53;;;;;;;;;;;;;;;19.19;43.92;102058.94;5072063;28;19920;-66
2023/06/18 08:57:30;;;;;;;;;;;;;;;19.19;44.96;102059.78;5075811;28;19924;-65
2023/06/18 08:59:57;;;;;;;;;;;;;;;19.25;44.90;102052.78;5076121;28;19978;-65
2023/06/18 09:02:24;;;;;;;;;;;;;;;19.22;45.17;102061.25;5076204;28;19960;-67
2023/06/18 09:04:49;;;;;;;;;;;;;;;19.23;46.70;102054.00;5075458;28;20007;-64
2023/06/18 09:07:15;;;;;;;;;;;;;;;19.28;46.97;102056.97;5075869;28;20368;-66
2023/06/18 09:09:40;;;;;;;;;;;;;;;19.40;46.98;102052.75;5075737;28;20023;-65
2023/06/18 09:12:06;;;;;;;;;;;;;;;19.39;45.54;102049.22;5077032;28;19924;-66
2023/06/18 09:14:31;;;;;;;;;;;;;;;19.36;46.38;102051.44;5076990;28;19927;-67
2023/06/18 09:16:57;;;;;;;;;;;;;;;19.33;46.46;102039.16;5059043;28;19926;-65
2023/06/18 09:19:23;;;;;;;;;;;;;;;19.35;46.27;102042.50;5078994;28;19921;-66
2023/06/18 09:21:49;;;;;;;;;;;;;;;19.29;45.42;102053.22;5079556;28;20451;-66
2023/06/18 09:24:20;;;;;;;;;;;;;;;19.27;45.71;102066.94;5062052;28;19974;-64
2023/06/18 09:26:46;;;;;;;;;;;;;;;19.25;46.47;102046.53;5079506;28;20391;-64
2023/06/18 09:29:12;;;;;;;;;;;;;;;19.25;46.95;102058.19;5079432;28;19926;-65
2023/06/18 09:31:44;;;;;;;;;;;;;;;19.19;45.67;102067.88;5060144;28;20007;-65
2023/06/18 09:34:19;;;;;;;;;;;;;;;19.21;44.77;102059.59;5077963;28;19964;-65
2023/06/18 09:36:48;;;;;;;;;;;;;;;19.21;45.49;102056.88;5075586;28;19920;-67
2023/06/18 09:39:23;;;;;;;;;;;;;;;19.23;46.67;102065.63;5075289;28;19928;-66
2023/06/18 09:41:51;;;;;;;;;;;;;;;19.30;46.13;102058.44;5075540;28;19943;-67
2023/06/18 09:44:17;;;;;;;;;;;;;;;19.30;45.59;102050.34;5057306;28;19967;-66
2023/06/18 09:46:44;;;;;;;;;;;;;;;19.36;46.01;102054.16;5056797;28;19920;-65
2023/06/18 09:49:10;;;;;;;;;;;;;;;19.38;45.68;102058.34;5074820;28;20463;-66
2023/06/18 09:51:42;;;;;;;;;;;;;;;19.39;45.81;102059.19;5074958;28;19963;-66
2023/06/18 09:54:08;;;;;;;;;;;;;;;19.39;44.97;102051.94;5075004;28;19927;-66
2023/06/18 09:56:33;;;;;;;;;;;;;;;19.38;43.63;102057.53;5074975;28;19924;-65
2023/06/18 09:58:59;;;;;;;;;;;;;;;19.39;43.34;102057.34;5075272;28;20375;-65
2023/06/18 10:01:27;;;;;;;;;;;;;;;19.47;43.75;102051.81;5057001;28;19927;-65
2023/06/18 10:03:52;;;;;;;;;;;;;;;19.49;43.11;102047.06;5074805;28;19920;-66
2023/06/18 10:06:19;;;;;;;;;;;;;;;19.48;43.52;102048.09;5074738;28;20410;-67
2023/06/18 10:08:51;;;;;;;;;;;;;;;19.46;43.08;102049.31;5056738;28;20391;-66
2023/06/18 10:11:19;;;;;;;;;;;;;;;19.31;43.51;102045.78;5056572;28;19982;-65
2023/06/18 10:13:46;;;;;;;;;;;;;;;19.30;43.76;102058.44;5056356;28;20498;-67
2023/06/18 10:16:15;;;;;;;;;;;;;;;19.22;43.67;102047.75;5074588;28;19920;-68
2023/06/18 10:19:04;;;;;;;;;;;;;;;19.16;43.69;102051.22;5074783;28;19920;-65
2023/06/18 10:21:31;;;;;;;;;;;;;;;19.25;43.24;102041.97;5063501;28;19925;-65
2023/06/18 10:24:02;;;;;;;;;;;;;;;19.27;43.58;102044.47;5074327;28;19924;-65
2023/06/18 10:26:28;;;;;;;;;;;;;;;19.26;43.73;102049.03;5074585;28;19920;-66
2023/06/18 10:28:53;;;;;;;;;;;;;;;19.32;43.90;102051.00;5074502;28;19927;-68
2023/06/18 10:31:20;;;;;;;;;;;;;;;19.30;43.73;102053.03;5056714;28;19920;-71
2023/06/18 10:33:46;;;;;;;;;;;;;;;19.27;43.88;102056.13;5056242;28;20414;-66
2023/06/18 10:36:12;;;;;;;;;;;;;;;19.27;43.91;102045.31;5074104;28;19920;-65
2023/06/18 10:38:37;;;;;;;;;;;;;;;19.23;43.39;102052.13;5074002;28;19927;-63
2023/06/18 10:41:10;;;;;;;;;;;;;;;19.24;43.88;102055.66;5056201;28;20011;-66
2023/06/18 10:43:39;;;;;;;;;;;;;;;19.21;44.67;102051.47;5073914;28;19946;-65
2023/06/18 10:46:12;;;;;;;;;;;;;;;19.26;44.32;102053.63;5074037;28;20010;-63
2023/06/18 10:48:37;;;;;;;;;;;;;;;19.17;44.88;102059.13;5073771;28;19927;-66
2023/06/18 10:51:14;;;;;;;;;;;;;;;19.25;44.49;102070.84;5055847;28;19920;-64
2023/06/18 10:53:39;;;;;;;;;;;;;;;19.18;44.68;102059.97;5073889;28;19964;-68
2023/06/18 10:56:04;;;;;;;;;;;;;;;19.24;44.42;102061.91;5073781;28;20005;-67
2023/06/18 10:58:34;;;;;;;;;;;;;;;19.27;44.16;102056.13;5073870;28;19921;-67
2023/06/18 11:00:59;;;;;;;;;;;;;;;19.29;43.84;102066.75;5073627;28;19926;-68
2023/06/18 11:03:32;;;;;;;;;;;;;;;19.22;44.11;102066.66;5073606;28;19920;-66
2023/06/18 11:06:00;;;;;;;;;;;;;;;19.24;44.10;102059.19;5073822;28;19925;-66
2023/06/18 11:08:27;;;;;;;;;;;;;;;19.26;44.21;102062.56;5074024;28;20016;-65
2023/06/18 11:11:00;;;;;;;;;;;;;;;19.33;44.25;102066.16;5056629;28;20012;-66
2023/06/18 11:13:28;;;;;;;;;;;;;;;19.39;43.84;102070.84;5074617;28;19924;-66
2023/06/18 11:15:57;;;;;;;;;;;;;;;19.37;42.89;102059.38;5073955;28;19927;-65
2023/06/18 11:18:25;;;;;;;;;;;;;;;19.31;42.81;102057.41;5072586;28;19921;-66
2023/06/18 11:20:51;;;;;;;;;;;;;;;19.23;42.56;102075.59;5074487;28;19920;-67
2023/06/18 11:23:16;;;;;;;;;;;;;;;19.22;42.80;102063.97;5074564;28;20303;-66
2023/06/18 11:25:42;;;;;;;;;;;;;;;19.22;42.66;102063.97;5074210;28;20348;-67
2023/06/18 11:28:08;;;;;;;;;;;;;;;19.23;42.22;102060.22;5074287;28;19920;-65
2023/06/18 11:30:36;;;;;;;;;;;;;;;19.21;42.62;102061.44;5073037;28;19927;-66
2023/06/18 11:33:02;;;;;;;;;;;;;;;19.12;42.48;102064.25;5072879;28;19920;-66
2023/06/18 11:35:30;;;;;;;;;;;;;;;19.10;42.30;102060.91;5073065;28;19927;-64
2023/06/18 11:37:56;;;;;;;;;;;;;;;19.12;41.94;102058.84;5072720;28;19928;-65
2023/06/18 11:40:21;;;;;;;;;;;;;;;19.16;41.32;102062.84;5072665;28;19920;-67
2023/06/18 11:42:48;;;;;;;;;;;;;;;19.13;41.82;102054.28;5054721;28;20011;-66
2023/06/18 11:45:14;;;;;;;;;;;;;;;19.10;41.17;102046.56;5072523;28;20396;-66
2023/06/18 11:47:44;;;;;;;;;;;;;;;19.20;41.12;102049.81;5072680;28;19921;-65
2023/06/18 11:50:10;;;;;;;;;;;;;;;19.26;40.98;102045.50;5073146;28;19927;-67
2023/06/18 11:52:36;;;;;;;;;;;;;;;19.30;40.44;102055.75;5072866;28;19925;-66
2023/06/18 11:55:03;;;;;;;;;;;;;;;19.33;40.76;102044.56;5054891;28;20384;-66
2023/06/18 11:57:29;;;;;;;;;;;;;;;19.40;40.81;102042.78;5072700;28;19924;-67
2023/06/18 11:59:55;;;;;;;;;;;;;;;19.44;40.10;102044.09;5054573;28;19982;-67
2023/06/18 12:02:21;;;;;;;;;;;;;;;19.40;39.66;102039.25;5054755;28;19920;-67
2023/06/18 12:04:47;;;;;;;;;;;;;;;19.37;39.60;102035.06;5072492;28;19973;-65
2023/06/18 12:07:16;;;;;;;;;;;;;;;19.33;39.71;102047.25;5072923;28;20011;-66
2023/06/18 12:09:43;;;;;;;;;;;;;;;19.29;39.84;102043.25;5054478;28;19950;-67
2023/06/18 12:12:30;;;;;;;;;;;;;;;19.12;39.68;102047.22;5072203;28;20098;-65
2023/06/18 12:15:16;;;;;;;;;;;;;;;19.13;39.76;102041.63;5072607;28;19967;-68
2023/06/18 12:17:48;;;;;;;;;;;;;;;19.30;39.85;102039.53;5054432;28;19921;-66
2023/06/18 12:20:13;;;;;;;;;;;;;;;19.40;39.04;102034.69;5072329;28;19920;-66
2023/06/18 12:22:40;;;;;;;;;;;;;;;19.48;39.29;102031.03;5074425;28;20022;-67
2023/06/18 12:25:06;;;;;;;;;;;;;;;19.55;38.83;102033.84;5073466;28;19921;-67
2023/06/18 12:27:31;;;;;;;;;;;;;;;19.45;38.79;102039.53;5073025;28;19929;-66
2023/06/18 12:30:00;;;;;;;;;;;;;;;19.38;38.82;102031.34;5054343;28;19959;-67
2023/06/18 12:32:26;;;;;;;;;;;;;;;19.31;38.73;102060.13;5055817;28;19920;-66